createdAt,value
2019-04-22T00:01:28.622Z,21.87
2019-04-22T00:04:06.118Z,21.57
2019-04-22T00:06:59.811Z,21.70
2019-04-22T00:09:31.080Z,21.30
2019-04-22T00:12:07.680Z,20.97
2019-04-22T00:14:36.604Z,21.17
2019-04-22T00:17:16.664Z,20.67
2019-04-22T00:19:52.385Z,19.83
2019-04-22T00:22:23.871Z,20.67
2019-04-22T00:25:01.122Z,21.33
2019-04-22T00:27:39.174Z,19.30
2019-04-22T00:30:07.930Z,18.97
2019-04-22T00:32:58.917Z,16.87
2019-04-22T00:35:33.295Z,19.83
2019-04-22T00:38:11.147Z,18.40
2019-04-22T00:40:42.435Z,19.20
2019-04-22T00:43:13.588Z,18.93
2019-04-22T00:48:44.562Z,17.53
2019-04-22T00:51:22.491Z,17.03
2019-04-22T00:53:36.074Z,17.40
2019-04-22T00:56:16.754Z,16.77
2019-04-22T00:58:45.121Z,15.20
2019-04-22T01:01:20.254Z,15.33
2019-04-22T01:04:04.261Z,14.83
2019-04-22T01:06:26.437Z,18.67
2019-04-22T01:09:04.345Z,19.23
2019-04-22T01:11:33.643Z,18.00
2019-04-22T01:14:06.541Z,19.50
2019-04-22T01:16:43.096Z,19.73
2019-04-22T01:19:23.525Z,18.17
2019-04-22T01:21:52.469Z,18.03
2019-04-22T01:24:24.767Z,18.83
2019-04-22T01:26:56.452Z,18.00
2019-04-22T01:29:22.795Z,16.60
2019-04-22T01:31:45.634Z,19.80
2019-04-22T01:34:33.617Z,18.93
2019-04-22T01:37:11.292Z,17.13
2019-04-22T01:39:49.785Z,17.17
2019-04-22T01:42:24.504Z,19.80
2019-04-22T01:44:59.035Z,19.20
2019-04-22T01:47:36.322Z,19.40
2019-04-22T01:50:06.228Z,20.03
2019-04-22T01:52:44.725Z,18.23
2019-04-22T01:55:17.807Z,17.50
2019-04-22T01:57:50.030Z,16.83
2019-04-22T02:00:12.567Z,15.40
2019-04-22T02:03:01.117Z,16.23
2019-04-22T02:05:28.669Z,17.07
2019-04-22T02:08:04.437Z,20.27
2019-04-22T02:10:44.344Z,17.57
2019-04-22T02:13:15.434Z,18.20
2019-04-22T02:15:47.847Z,18.17
2019-04-22T02:18:27.712Z,19.10
2019-04-22T02:20:48.857Z,18.63
2019-04-22T02:26:09.439Z,17.17
2019-04-22T02:34:09.648Z,15.70
2019-04-22T02:36:30.097Z,13.43
2019-04-22T02:41:35.041Z,13.50
2019-04-22T02:49:18.865Z,14.10
2019-04-22T02:51:44.416Z,14.03
2019-04-22T02:56:53.019Z,13.30
2019-04-22T02:59:36.968Z,13.70
2019-04-22T03:02:07.608Z,14.47
2019-04-22T03:04:39.398Z,13.57
2019-04-22T03:07:03.714Z,14.07
2019-04-22T03:09:51.773Z,15.00
2019-04-22T03:14:51.742Z,14.23
2019-04-22T03:17:30.864Z,13.90
2019-04-22T03:25:42.281Z,13.80
2019-04-22T03:45:30.184Z,16.20
2019-04-22T03:48:33.129Z,19.23
2019-04-22T03:50:39.426Z,19.40
2019-04-22T03:53:21.209Z,20.63
2019-04-22T03:55:59.698Z,20.30
2019-04-22T03:58:28.274Z,22.00
2019-04-22T04:01:11.053Z,23.10
2019-04-22T04:03:39.448Z,21.90
2019-04-22T04:06:06.867Z,21.57
2019-04-22T04:08:39.142Z,19.17
2019-04-22T04:11:24.619Z,21.37
2019-04-22T04:14:05.469Z,23.97
2019-04-22T04:16:35.009Z,22.57
2019-04-22T04:19:07.820Z,22.43
2019-04-22T04:24:25.854Z,24.77
2019-04-22T04:27:06.746Z,22.20
2019-04-22T04:32:09.359Z,21.90
2019-04-22T04:34:43.825Z,25.10
2019-04-22T04:37:15.090Z,25.37
2019-04-22T04:39:36.423Z,24.90
2019-04-22T04:42:14.410Z,26.80
2019-04-22T04:44:58.650Z,26.20
2019-04-22T04:47:25.836Z,29.80
2019-04-22T04:49:54.428Z,27.20
2019-04-22T04:52:39.302Z,23.20
2019-04-22T04:57:33.731Z,26.03
2019-04-22T05:00:31.942Z,22.07
2019-04-22T05:05:14.517Z,25.27
2019-04-22T05:15:27.614Z,22.93
2019-04-22T05:18:06.101Z,23.37
2019-04-22T05:22:59.430Z,19.00
2019-04-22T05:25:31.975Z,19.73
2019-04-22T05:28:11.880Z,18.77
2019-04-22T05:30:42.440Z,20.00
2019-04-22T05:33:22.853Z,19.93
2019-04-22T05:35:56.332Z,17.57
2019-04-22T05:38:33.210Z,16.87
2019-04-22T05:40:56.495Z,17.37
2019-04-22T05:43:38.562Z,17.77
2019-04-22T05:46:05.712Z,19.97
2019-04-22T05:51:24.273Z,17.70
2019-04-22T05:53:48.157Z,16.20
2019-04-22T05:56:28.702Z,18.20
2019-04-22T05:58:58.313Z,19.60
2019-04-22T06:01:38.922Z,21.13
2019-04-22T06:04:05.375Z,21.33
2019-04-22T06:06:37.095Z,21.70
2019-04-22T06:09:10.714Z,21.20
2019-04-22T06:11:42.825Z,21.53
2019-04-22T06:14:15.280Z,20.70
2019-04-22T06:16:57.167Z,29.73
2019-04-22T06:19:33.223Z,37.40
2019-04-22T06:22:04.286Z,28.53
2019-04-22T06:24:43.690Z,28.23
2019-04-22T06:27:21.797Z,22.60
2019-04-22T06:29:41.759Z,26.80
2019-04-22T06:32:26.291Z,24.97
2019-04-22T06:35:00.428Z,26.03
2019-04-22T06:37:59.770Z,29.30
2019-04-22T06:39:59.167Z,24.77
2019-04-22T06:42:36.546Z,27.20
2019-04-22T06:45:12.107Z,38.03
2019-04-22T06:50:28.407Z,20.90
2019-04-22T06:52:57.186Z,25.53
2019-04-22T06:55:33.244Z,21.80
2019-04-22T06:58:01.539Z,18.13
2019-04-22T07:00:36.937Z,15.83
2019-04-22T07:03:28.591Z,15.97
2019-04-22T07:05:57.006Z,16.97
2019-04-22T07:08:39.335Z,16.17
2019-04-22T07:13:29.924Z,23.97
2019-04-22T07:16:00.341Z,23.33
2019-04-22T07:23:46.045Z,18.93
2019-04-22T07:28:50.659Z,26.53
2019-04-22T07:31:24.876Z,28.17
2019-04-22T07:33:58.214Z,28.13
2019-04-22T07:36:45.694Z,24.47
2019-04-22T07:39:04.003Z,29.90
2019-04-22T07:41:42.991Z,29.00
2019-04-22T07:44:17.672Z,27.87
2019-04-22T07:46:56.525Z,26.53
2019-04-22T07:49:26.638Z,25.73
2019-04-22T07:51:57.683Z,24.80
2019-04-22T07:54:38.217Z,22.43
2019-04-22T07:57:17.939Z,24.43
2019-04-22T07:59:40.859Z,27.43
2019-04-22T08:02:21.691Z,135.80
2019-04-22T08:05:03.804Z,35.53
2019-04-22T08:07:24.109Z,35.03
2019-04-22T08:10:09.175Z,35.37
2019-04-22T08:12:36.091Z,23.80
2019-04-22T08:15:06.068Z,24.27
2019-04-22T08:20:19.026Z,20.43
2019-04-22T08:22:52.166Z,19.53
2019-04-22T08:25:20.386Z,46.03
2019-04-22T08:27:57.275Z,26.40
2019-04-22T08:30:34.885Z,26.07
2019-04-22T08:33:13.781Z,17.73
2019-04-22T08:35:53.861Z,22.07
2019-04-22T08:38:11.429Z,19.80
2019-04-22T08:41:16.425Z,17.23
2019-04-22T08:46:25.574Z,21.13
2019-04-22T08:51:25.450Z,21.50
2019-04-22T08:54:13.683Z,20.27
2019-04-22T08:56:37.609Z,19.15
2019-04-22T08:59:07.941Z,18.62
2019-04-22T09:01:37.687Z,16.10
2019-04-22T09:04:27.881Z,16.48
2019-04-22T09:07:07.505Z,14.98
2019-04-22T09:09:21.286Z,14.98
2019-04-22T09:12:00.208Z,15.38
2019-04-22T09:14:34.252Z,15.70
2019-04-22T09:17:04.095Z,15.55
2019-04-22T09:19:38.571Z,14.30
2019-04-22T09:22:15.978Z,13.90
2019-04-22T09:24:45.982Z,12.98
2019-04-22T09:27:24.681Z,12.33
2019-04-22T09:29:55.529Z,11.83
2019-04-22T09:32:31.706Z,13.40
2019-04-22T09:34:58.924Z,11.43
2019-04-22T09:42:43.730Z,11.87
2019-04-22T09:45:15.145Z,12.27
2019-04-22T09:47:56.870Z,11.60
2019-04-22T09:55:29.811Z,9.13
2019-04-22T09:58:04.511Z,8.73
2019-04-22T10:00:45.844Z,7.97
2019-04-22T10:03:17.855Z,7.50
2019-04-22T10:05:52.479Z,7.27
2019-04-22T10:08:38.389Z,6.50
2019-04-22T10:10:58.007Z,6.05
2019-04-22T10:13:34.539Z,5.00
2019-04-22T10:16:02.968Z,4.87
2019-04-22T10:18:43.715Z,4.62
2019-04-22T10:21:16.572Z,4.50
2019-04-22T10:23:45.836Z,4.08
2019-04-22T10:26:22.306Z,3.70
2019-04-22T10:31:32.873Z,4.03
2019-04-22T10:33:53.723Z,3.83
2019-04-22T10:36:11.293Z,4.12
2019-04-22T10:38:44.544Z,4.78
2019-04-22T10:41:16.748Z,8.35
2019-04-22T10:43:48.952Z,3.80
2019-04-22T10:46:22.475Z,4.17
2019-04-22T10:48:54.687Z,4.35
2019-04-22T10:51:26.886Z,4.50
2019-04-22T10:53:59.717Z,4.45
2019-04-22T10:56:34.845Z,4.37
2019-04-22T10:59:06.918Z,5.17
2019-04-22T11:01:42.384Z,4.15
2019-04-22T11:04:15.277Z,5.47
2019-04-22T11:06:53.068Z,3.95
2019-04-22T11:09:23.489Z,4.03
2019-04-22T11:12:02.082Z,4.10
2019-04-22T11:14:28.736Z,4.20
2019-04-22T11:17:03.398Z,3.65
2019-04-22T11:19:35.354Z,3.92
2019-04-22T11:22:15.204Z,4.85
2019-04-22T11:24:41.203Z,4.83
2019-04-22T11:27:14.755Z,5.10
2019-04-22T11:29:47.720Z,5.25
2019-04-22T11:32:20.421Z,5.28
2019-04-22T11:34:53.599Z,5.58
2019-04-22T11:37:25.984Z,7.20
2019-04-22T11:40:06.890Z,6.43
2019-04-22T11:42:32.280Z,5.93
2019-04-22T11:45:05.580Z,6.70
2019-04-22T11:47:39.251Z,6.27
2019-04-22T11:50:12.933Z,6.27
2019-04-22T11:52:45.043Z,6.63
2019-04-22T11:55:17.453Z,6.97
2019-04-22T11:57:49.972Z,6.57
2019-04-22T12:00:30.556Z,6.37
2019-04-22T12:03:03.239Z,6.20
2019-04-22T12:05:35.556Z,5.93
2019-04-22T12:08:09.335Z,6.20
2019-04-22T12:10:49.484Z,5.20
2019-04-22T12:13:15.878Z,5.10
2019-04-22T12:15:49.106Z,4.90
2019-04-22T12:18:22.879Z,4.37
2019-04-22T12:20:55.356Z,4.80
2019-04-22T12:23:27.441Z,4.50
2019-04-22T12:26:04.229Z,4.87
2019-04-22T12:28:33.321Z,5.87
2019-04-22T12:31:05.761Z,5.30
2019-04-22T12:33:39.185Z,4.97
2019-04-22T12:36:12.670Z,6.20
2019-04-22T12:38:45.370Z,5.80
2019-04-22T12:41:18.029Z,5.77
2019-04-22T12:43:51.606Z,5.40
2019-04-22T12:46:24.071Z,5.50
2019-04-22T12:48:58.258Z,13.83
2019-04-22T12:51:31.364Z,12.20
2019-04-22T12:54:03.629Z,5.20
2019-04-22T12:56:35.766Z,5.20
2019-04-22T12:59:07.844Z,6.10
2019-04-22T13:01:39.839Z,5.53
2019-04-22T13:04:15.536Z,5.23
2019-04-22T13:06:46.101Z,6.10
2019-04-22T13:09:19.539Z,5.83
2019-04-22T13:11:52.957Z,5.27
2019-04-22T13:14:25.159Z,4.73
2019-04-22T13:16:57.776Z,5.20
2019-04-22T13:19:30.268Z,5.43
2019-04-22T13:22:02.928Z,5.60
2019-04-22T13:24:36.146Z,5.83
2019-04-22T13:27:10.862Z,5.90
2019-04-22T13:29:43.453Z,5.30
2019-04-22T13:32:16.554Z,5.23
2019-04-22T13:34:53.320Z,5.23
2019-04-22T13:37:23.255Z,4.83
2019-04-22T13:39:56.844Z,5.27
2019-04-22T13:42:30.123Z,4.93
2019-04-22T13:45:04.048Z,5.10
2019-04-22T13:47:54.692Z,5.30
2019-04-22T13:50:54.484Z,5.70
2019-04-22T13:53:30.379Z,5.63
2019-04-22T13:55:48.174Z,5.17
2019-04-22T13:58:09.727Z,5.80
2019-04-22T14:00:32.406Z,7.10
2019-04-22T14:03:26.755Z,7.83
2019-04-22T14:05:58.883Z,8.07
2019-04-22T14:08:31.333Z,8.70
2019-04-22T14:11:13.195Z,8.47
2019-04-22T14:13:37.749Z,8.33
2019-04-22T14:16:11.015Z,8.43
2019-04-22T14:18:45.954Z,6.50
2019-04-22T14:21:17.110Z,6.37
2019-04-22T14:23:49.124Z,6.80
2019-04-22T14:26:23.059Z,7.87
2019-04-22T14:28:55.732Z,8.80
2019-04-22T14:31:28.808Z,9.53
2019-04-22T14:34:05.142Z,10.13
2019-04-22T14:36:35.310Z,11.60
2019-04-22T14:39:10.322Z,10.20
2019-04-22T14:41:57.570Z,10.63
2019-04-22T14:45:16.926Z,12.57
2019-04-22T14:47:17.618Z,10.37
2019-04-22T14:49:47.319Z,11.37
2019-04-22T14:52:21.487Z,12.43
2019-04-22T14:54:45.938Z,11.90
2019-04-22T14:57:07.446Z,10.40
2019-04-22T14:59:39.894Z,9.77
2019-04-22T15:02:13.936Z,9.60
2019-04-22T15:04:46.143Z,11.20
2019-04-22T15:07:19.185Z,11.47
2019-04-22T15:09:52.265Z,10.53
2019-04-22T15:12:31.263Z,10.10
2019-04-22T15:14:59.737Z,10.77
2019-04-22T15:17:38.852Z,11.30
2019-04-22T15:20:19.631Z,11.30
2019-04-22T15:22:53.084Z,11.83
2019-04-22T15:25:28.300Z,12.20
2019-04-22T15:28:01.521Z,12.67
2019-04-22T15:30:35.139Z,11.17
2019-04-22T15:33:07.485Z,12.33
2019-04-22T15:35:41.042Z,9.10
2019-04-22T15:38:13.290Z,9.60
2019-04-22T15:40:45.269Z,10.93
2019-04-22T15:43:17.387Z,9.90
2019-04-22T15:45:50.780Z,10.10
2019-04-22T15:48:23.255Z,8.70
2019-04-22T15:50:55.341Z,10.67
2019-04-22T15:53:27.659Z,7.73
2019-04-22T15:56:00.802Z,7.10
2019-04-22T15:58:33.553Z,8.03
2019-04-22T16:01:12.977Z,8.30
2019-04-22T16:03:40.661Z,9.63
2019-04-22T16:06:12.794Z,9.00
2019-04-22T16:08:45.793Z,8.20
2019-04-22T16:11:18.192Z,10.50
2019-04-22T16:13:52.488Z,12.10
2019-04-22T16:16:24.846Z,19.00
2019-04-22T16:18:58.453Z,11.07
2019-04-22T16:21:40.543Z,11.80
2019-04-22T16:24:28.143Z,11.10
2019-04-22T16:27:06.554Z,8.37
2019-04-22T16:29:39.271Z,8.93
2019-04-22T16:32:11.550Z,8.33
2019-04-22T16:34:43.540Z,9.47
2019-04-22T16:37:16.758Z,11.60
2019-04-22T16:39:50.477Z,15.17
2019-04-22T16:42:30.220Z,10.33
2019-04-22T16:44:57.587Z,15.40
2019-04-22T16:47:31.363Z,12.80
2019-04-22T16:50:03.787Z,12.93
2019-04-22T16:52:36.291Z,11.37
2019-04-22T16:55:10.599Z,12.87
2019-04-22T16:57:44.113Z,11.00
2019-04-22T17:00:18.570Z,13.77
2019-04-22T17:03:06.652Z,12.53
2019-04-22T17:06:05.367Z,11.50
2019-04-22T17:08:38.915Z,12.50
2019-04-22T17:11:11.764Z,10.03
2019-04-22T17:13:44.619Z,10.43
2019-04-22T17:16:18.036Z,10.23
2019-04-22T17:18:50.394Z,8.63
2019-04-22T17:21:23.612Z,10.37
2019-04-22T17:23:56.987Z,10.57
2019-04-22T17:26:30.360Z,9.40
2019-04-22T17:29:06.216Z,9.67
2019-04-22T17:31:40.194Z,9.83
2019-04-22T17:34:13.410Z,9.70
2019-04-22T17:36:46.238Z,11.10
2019-04-22T17:39:32.962Z,14.70
2019-04-22T17:42:11.192Z,16.70
2019-04-22T17:44:49.810Z,12.30
2019-04-22T17:47:31.765Z,16.87
2019-04-22T17:50:11.740Z,13.83
2019-04-22T17:52:42.659Z,13.90
2019-04-22T17:55:21.379Z,15.23
2019-04-22T17:57:49.502Z,13.27
2019-04-22T18:00:25.449Z,17.03
2019-04-22T18:02:54.748Z,16.60
2019-04-22T18:05:22.180Z,13.93
2019-04-22T18:08:11.710Z,16.73
2019-04-22T18:10:40.627Z,16.80
2019-04-22T18:13:30.399Z,14.70
2019-04-22T18:15:54.768Z,14.53
2019-04-22T18:18:33.213Z,14.27
2019-04-22T18:20:56.343Z,17.50
2019-04-22T18:23:20.835Z,13.00
2019-04-22T18:26:05.332Z,15.97
2019-04-22T18:28:43.530Z,13.13
2019-04-22T18:31:12.125Z,15.80
2019-04-22T18:33:47.923Z,15.83
2019-04-22T18:36:19.282Z,15.80
2019-04-22T18:39:06.267Z,21.87
2019-04-22T18:41:30.355Z,13.77
2019-04-22T18:44:04.382Z,16.03
2019-04-22T18:46:36.879Z,13.90
2019-04-22T18:49:12.400Z,14.07
2019-04-22T18:51:51.393Z,15.47
2019-04-22T18:54:36.015Z,15.07
2019-04-22T18:57:13.779Z,15.07
2019-04-22T18:59:33.657Z,14.13
2019-04-22T19:02:07.805Z,13.87
2019-04-22T19:04:47.262Z,14.07
2019-04-22T19:07:36.873Z,14.20
2019-04-22T19:10:10.616Z,12.53
2019-04-22T19:12:48.806Z,13.57
2019-04-22T19:15:19.063Z,12.83
2019-04-22T19:17:54.386Z,13.00
2019-04-22T19:20:29.622Z,13.87
2019-04-22T19:22:57.514Z,13.60
2019-04-22T19:25:24.058Z,12.10
2019-04-22T19:28:14.180Z,12.27
2019-04-22T19:30:41.515Z,12.77
2019-04-22T19:33:11.214Z,12.63
2019-04-22T19:35:40.434Z,11.23
2019-04-22T19:38:12.186Z,12.00
2019-04-22T19:41:03.044Z,12.17
2019-04-22T19:43:28.639Z,11.67
2019-04-22T19:45:58.914Z,11.17
2019-04-22T19:48:39.697Z,10.40
2019-04-22T19:51:34.016Z,10.90
2019-04-22T19:53:46.696Z,11.10
2019-04-22T19:56:11.707Z,10.00
2019-04-22T19:58:47.697Z,10.30
2019-04-22T20:01:49.508Z,11.13
2019-04-22T20:04:46.301Z,10.27
2019-04-22T20:07:12.733Z,11.20
2019-04-22T20:09:55.139Z,10.33
2019-04-22T20:12:21.382Z,11.80
2019-04-22T20:14:54.477Z,10.77
2019-04-22T20:17:40.944Z,9.97
2019-04-22T20:20:09.664Z,9.83
2019-04-22T20:22:37.245Z,10.50
2019-04-22T20:25:05.425Z,10.30
2019-04-22T20:27:54.655Z,10.63
2019-04-22T20:30:28.271Z,10.40
2019-04-22T20:32:56.666Z,9.70
2019-04-22T20:35:32.757Z,10.47
2019-04-22T20:38:10.736Z,10.67
2019-04-22T20:40:41.424Z,10.37
2019-04-22T20:43:22.061Z,9.30
2019-04-22T20:45:47.950Z,9.43
2019-04-22T20:48:07.980Z,10.63
2019-04-22T20:50:54.142Z,10.17
2019-04-22T20:53:30.180Z,10.40
2019-04-22T20:56:08.926Z,9.33
2019-04-22T20:58:42.823Z,9.23
2019-04-22T21:00:59.863Z,10.10
2019-04-22T21:03:32.980Z,10.00
2019-04-22T21:06:13.073Z,9.47
2019-04-22T21:08:57.984Z,9.00
2019-04-22T21:11:27.805Z,8.97
2019-04-22T21:13:55.993Z,9.03
2019-04-22T21:16:32.822Z,10.50
2019-04-22T21:19:11.735Z,9.93
2019-04-22T21:21:47.025Z,9.63
2019-04-22T21:24:09.274Z,8.73
2019-04-22T21:26:43.777Z,9.00
2019-04-22T21:29:17.276Z,8.67
2019-04-22T21:31:57.850Z,9.37
2019-04-22T21:34:32.293Z,8.70
2019-04-22T21:37:15.984Z,8.50
2019-04-22T21:39:40.229Z,9.70
2019-04-22T21:42:11.820Z,9.20
2019-04-22T21:44:45.570Z,9.07
2019-04-22T21:47:28.698Z,8.80
2019-04-22T21:50:19.682Z,8.67
2019-04-22T21:52:34.575Z,9.70
2019-04-22T21:55:14.488Z,9.60
2019-04-22T21:58:02.546Z,9.23
2019-04-22T22:00:43.223Z,8.57
2019-04-22T22:03:15.403Z,9.53
2019-04-22T22:05:35.497Z,9.70
2019-04-22T22:08:23.436Z,9.47
2019-04-22T22:10:54.758Z,8.57
2019-04-22T22:13:29.355Z,8.70
2019-04-22T22:16:00.137Z,8.43
2019-04-22T22:18:30.325Z,8.70
2019-04-22T22:21:28.365Z,8.20
2019-04-22T22:23:45.646Z,8.40
2019-04-22T22:26:09.800Z,8.63
2019-04-22T22:31:33.194Z,9.03
2019-04-22T22:34:04.119Z,8.37
2019-04-22T22:36:23.786Z,8.70
2019-04-22T22:39:00.701Z,8.47
2019-04-22T22:41:18.412Z,8.73
2019-04-22T22:43:53.107Z,8.80
2019-04-22T22:46:34.169Z,9.10
2019-04-22T22:49:23.337Z,8.83
2019-04-22T22:52:11.871Z,9.30
2019-04-22T22:54:33.074Z,9.60
2019-04-22T22:57:01.963Z,9.40
2019-04-22T22:59:33.186Z,9.30
2019-04-22T23:02:08.090Z,9.50
2019-04-22T23:04:48.753Z,8.67
2019-04-22T23:07:25.613Z,9.10
2019-04-22T23:09:49.011Z,8.70
2019-04-22T23:14:57.613Z,9.00
2019-04-22T23:17:16.666Z,9.03
2019-04-22T23:19:50.357Z,8.70
2019-04-22T23:22:28.385Z,8.30
2019-04-22T23:25:16.035Z,9.60
2019-04-22T23:27:46.537Z,8.97
2019-04-22T23:30:33.872Z,8.03
2019-04-22T23:33:09.895Z,8.50
2019-04-22T23:36:03.737Z,9.10
2019-04-22T23:38:53.696Z,8.67
2019-04-22T23:41:47.632Z,9.37
2019-04-22T23:44:13.858Z,9.47
2019-04-22T23:46:52.249Z,9.27
2019-04-22T23:49:25.329Z,9.20
2019-04-22T23:52:13.050Z,8.60
2019-04-22T23:54:43.588Z,9.03
2019-04-22T23:57:15.447Z,9.07
